Time;durP1;ratioP1;P1;durP2;ratioP2;P2;SDS_P1;SDS_P2;PMS_P1;PMS_P2;Temp;Humidity;BMP_temperature;BMP_pressure;BME280_temperature;BME280_humidity;BME280_pressure;Samples;Min_cycle;Max_cycle;Signal;HPM_P1;HPM_P2
2021/10/29 00:01:09;;;;;;;90.32;43.72;;;5.30;99.90;;;;;;6126230;23;20085;-87
2021/10/29 00:03:58;;;;;;;79.95;42.63;;;5.30;99.90;;;;;;6126887;23;20041;-87
2021/10/29 00:06:46;;;;;;;76.50;39.33;;;5.20;99.90;;;;;;6124360;23;20030;-87
2021/10/29 00:09:38;;;;;;;71.20;38.08;;;5.00;99.90;;;;;;6123829;23;20041;-88
2021/10/29 00:12:26;;;;;;;66.33;36.23;;;4.90;99.90;;;;;;6124405;23;20457;-88
2021/10/29 00:15:16;;;;;;;68.75;35.63;;;4.70;99.90;;;;;;6124678;23;20241;-87
2021/10/29 00:18:04;;;;;;;61.90;33.33;;;4.60;99.90;;;;;;6124543;23;20156;-87
2021/10/29 00:20:52;;;;;;;53.83;32.00;;;4.40;99.90;;;;;;6122834;23;20033;-88
2021/10/29 00:23:42;;;;;;;65.78;36.72;;;4.40;99.90;;;;;;6124740;23;20029;-87
2021/10/29 00:26:32;;;;;;;77.43;37.20;;;4.40;99.90;;;;;;6124043;23;20030;-86
2021/10/29 00:29:21;;;;;;;80.93;40.35;;;4.40;99.90;;;;;;6124018;23;20030;-87
2021/10/29 00:32:13;;;;;;;72.80;37.55;;;4.40;99.90;;;;;;6124131;23;20026;-88
2021/10/29 00:35:01;;;;;;;74.82;39.00;;;4.50;99.90;;;;;;6123440;23;20100;-87
2021/10/29 00:37:48;;;;;;;67.78;36.50;;;4.60;99.90;;;;;;6104387;23;20061;-87
2021/10/29 00:40:38;;;;;;;67.60;36.38;;;4.60;99.90;;;;;;6103103;23;20116;-87
2021/10/29 00:43:27;;;;;;;64.03;35.00;;;4.60;99.90;;;;;;6126453;23;20029;-88
2021/10/29 00:46:15;;;;;;;70.47;35.88;;;4.50;99.90;;;;;;6124759;23;20033;-88
2021/10/29 00:49:05;;;;;;;72.55;36.28;;;4.50;99.90;;;;;;6105252;23;20040;-88
2021/10/29 00:51:53;;;;;;;69.03;34.95;;;4.30;99.90;;;;;;6125760;23;20025;-87
2021/10/29 00:54:40;;;;;;;69.75;34.78;;;4.20;99.90;;;;;;6124112;23;20438;-86
2021/10/29 00:57:28;;;;;;;68.85;35.42;;;4.20;99.90;;;;;;6124332;23;20085;-87
2021/10/29 01:00:18;;;;;;;63.97;33.08;;;4.10;99.90;;;;;;6127791;23;20044;-87
2021/10/29 01:03:11;;;;;;;62.65;33.80;;;4.10;99.90;;;;;;6127060;23;20041;-86
2021/10/29 01:05:58;;;;;;;74.22;33.33;;;4.00;99.90;;;;;;6122530;23;20026;-88
2021/10/29 01:08:46;;;;;;;63.45;34.05;;;4.00;99.90;;;;;;6123234;23;20026;-88
2021/10/29 01:11:33;;;;;;;69.85;34.53;;;3.90;99.90;;;;;;6124121;23;20032;-88
2021/10/29 01:14:21;;;;;;;69.25;33.63;;;3.90;99.90;;;;;;6129043;23;20090;-88
2021/10/29 01:17:11;;;;;;;70.57;34.85;;;3.80;99.90;;;;;;6114914;23;20102;-86
2021/10/29 01:20:00;;;;;;;63.72;34.25;;;3.80;99.90;;;;;;6115752;23;20021;-88
2021/10/29 01:22:48;;;;;;;65.25;34.05;;;3.80;99.90;;;;;;6126758;23;20026;-86
2021/10/29 01:25:39;;;;;;;71.00;34.47;;;3.80;99.90;;;;;;6123366;23;20774;-88
2021/10/29 01:28:26;;;;;;;68.38;35.47;;;3.90;99.90;;;;;;6133434;23;20112;-88
2021/10/29 01:31:17;;;;;;;69.95;35.28;;;3.80;99.90;;;;;;6137119;23;20046;-87
2021/10/29 01:34:10;;;;;;;67.88;33.13;;;3.80;99.90;;;;;;6167345;23;20056;-87
2021/10/29 01:36:57;;;;;;;;;;;3.70;99.90;;;;;;6167999;23;20066;-87
2021/10/29 01:39:47;;;;;;;74.15;34.70;;;3.70;99.90;;;;;;6178148;23;19967;-87
2021/10/29 01:42:37;;;;;;;77.57;36.03;;;3.70;99.90;;;;;;6169555;23;20029;-88
2021/10/29 01:45:27;;;;;;;80.03;37.55;;;3.70;99.90;;;;;;6167468;23;20057;-88
2021/10/29 01:48:17;;;;;;;87.15;40.65;;;3.70;99.90;;;;;;6166271;23;20033;-88
2021/10/29 01:51:05;;;;;;;95.47;43.55;;;4.00;99.90;;;;;;6163320;23;20060;-88
2021/10/29 01:53:52;;;;;;;96.47;45.20;;;4.20;99.90;;;;;;6133312;23;20112;-87
2021/10/29 01:56:40;;;;;;;99.50;45.85;;;4.30;99.90;;;;;;6131726;23;20132;-88
2021/10/29 01:59:27;;;;;;;96.93;46.90;;;4.40;99.90;;;;;;6154795;23;20467;-88
2021/10/29 02:02:14;;;;;;;102.10;46.20;;;4.60;99.90;;;;;;6152537;23;20095;-87
2021/10/29 02:05:02;;;;;;;100.95;47.28;;;4.70;99.90;;;;;;6134587;23;20112;-88
2021/10/29 02:07:52;;;;;;;129.77;51.28;;;4.80;99.90;;;;;;6134086;23;20029;-88
2021/10/29 02:10:44;;;;;;;114.65;47.17;;;4.90;99.90;;;;;;6114929;23;20036;-88
2021/10/29 02:13:31;;;;;;;109.32;47.33;;;4.90;99.90;;;;;;6134134;23;20021;-88
2021/10/29 02:16:19;;;;;;;105.85;48.00;;;5.00;99.90;;;;;;6155054;23;20025;-87
2021/10/29 02:19:06;;;;;;;109.00;46.10;;;5.00;99.90;;;;;;6133170;23;20157;-88
2021/10/29 02:21:53;;;;;;;102.50;45.40;;;5.00;99.90;;;;;;6133086;23;20364;-88
2021/10/29 02:24:43;;;;;;;105.85;44.92;;;4.90;99.90;;;;;;6153988;23;20084;-87
2021/10/29 02:27:34;;;;;;;96.28;42.50;;;4.80;99.90;;;;;;6152639;23;20041;-87
2021/10/29 02:30:23;;;;;;;86.40;39.85;;;4.80;99.90;;;;;;6132740;23;20025;-87
2021/10/29 02:33:19;;;;;;;96.00;41.80;;;4.60;99.90;;;;;;6123683;23;20438;-87
2021/10/29 02:36:07;;;;;;;83.43;40.30;;;4.40;99.90;;;;;;6124199;23;20120;-87
2021/10/29 02:38:55;;;;;;;78.63;37.35;;;4.30;99.90;;;;;;6124831;23;20057;-88
2021/10/29 02:41:47;;;;;;;78.00;36.47;;;4.10;99.90;;;;;;6124559;23;20406;-87
2021/10/29 02:44:34;;;;;;;76.60;35.60;;;4.00;99.90;;;;;;6124960;23;20093;-87
2021/10/29 02:47:21;;;;;;;70.10;34.00;;;3.80;99.90;;;;;;6124766;23;20102;-88
2021/10/29 02:50:09;;;;;;;72.22;35.10;;;3.80;99.90;;;;;;6124595;23;20100;-87
2021/10/29 02:53:07;;;;;;;69.43;33.17;;;3.70;99.90;;;;;;6123444;23;20030;-87
2021/10/29 02:55:57;;;;;;;68.80;34.92;;;3.60;99.90;;;;;;6122596;23;20026;-87
2021/10/29 02:58:48;;;;;;;63.00;33.20;;;3.50;99.90;;;;;;6125258;23;20125;-87
2021/10/29 03:01:35;;;;;;;66.82;33.53;;;3.50;99.90;;;;;;6126113;23;20026;-87
2021/10/29 03:04:23;;;;;;;58.90;29.95;;;3.50;99.90;;;;;;6124500;23;20036;-86
2021/10/29 03:07:11;;;;;;;67.75;32.28;;;3.30;99.90;;;;;;6124610;23;20277;-87
2021/10/29 03:09:59;;;;;;;62.17;30.95;;;3.30;99.90;;;;;;6122831;23;20093;-87
2021/10/29 03:12:47;;;;;;;61.63;31.98;;;3.20;99.90;;;;;;6103549;23;20423;-87
2021/10/29 03:15:37;;;;;;;72.45;33.88;;;3.20;99.90;;;;;;6129347;23;20413;-87
2021/10/29 03:18:30;;;;;;;71.75;33.05;;;3.20;99.90;;;;;;6126222;23;20350;-87
2021/10/29 03:21:19;;;;;;;75.15;34.08;;;3.10;99.90;;;;;;6128618;23;20087;-87
2021/10/29 03:24:07;;;;;;;76.45;35.05;;;3.10;99.90;;;;;;6126370;23;20088;-87
2021/10/29 03:26:56;;;;;;;80.65;37.05;;;3.10;99.90;;;;;;6125660;23;20073;-87
2021/10/29 03:29:43;;;;;;;78.57;36.75;;;3.20;99.90;;;;;;6129128;23;20026;-87
2021/10/29 03:32:31;;;;;;;83.05;37.05;;;3.30;99.90;;;;;;6145103;23;20029;-88
2021/10/29 03:35:18;;;;;;;79.50;37.70;;;3.30;99.90;;;;;;6117820;23;20341;-87
2021/10/29 03:41:02;;;;;;;79.75;37.60;;;3.30;99.90;;;;;;6157263;23;20025;-87
2021/10/29 03:44:00;;;;;;;83.82;37.03;;;3.30;99.90;;;;;;6156551;23;20030;-87
2021/10/29 03:46:48;;;;;;;76.53;35.17;;;3.20;99.90;;;;;;6134605;23;20060;-87
2021/10/29 03:52:37;;;;;;;82.28;38.13;;;3.10;99.90;;;;;;6135818;23;20357;-86
2021/10/29 03:55:45;;;;;;;84.80;35.85;;;3.10;99.90;;;;;;6155091;23;20021;-87
2021/10/29 03:58:32;;;;;;;82.20;34.78;;;3.10;99.90;;;;;;6154349;23;20045;-87
2021/10/29 04:01:20;;;;;;;77.15;35.78;;;3.10;99.90;;;;;;6131372;23;20457;-86
2021/10/29 04:04:11;;;;;;;85.15;38.25;;;3.10;99.90;;;;;;6152873;23;20382;-87
2021/10/29 04:06:59;;;;;;;84.72;37.70;;;3.00;99.90;;;;;;6134366;23;20456;-87
2021/10/29 04:09:46;;;;;;;75.38;34.95;;;3.20;99.90;;;;;;6130858;23;20031;-87
2021/10/29 04:12:34;;;;;;;75.30;35.30;;;3.10;99.90;;;;;;6154895;23;20033;-87
2021/10/29 04:15:22;;;;;;;84.20;36.28;;;3.10;99.90;;;;;;6153191;23;20025;-87
2021/10/29 04:18:10;;;;;;;86.15;35.80;;;3.00;99.90;;;;;;6154909;23;20025;-87
2021/10/29 04:21:00;;;;;;;80.63;35.35;;;3.00;99.90;;;;;;6154316;23;20083;-87
2021/10/29 04:23:49;;;;;;;79.88;36.75;;;2.90;99.90;;;;;;6152952;23;20096;-87
2021/10/29 04:26:37;;;;;;;74.72;32.67;;;3.00;99.90;;;;;;6151385;23;20050;-89
2021/10/29 04:29:26;;;;;;;77.30;35.22;;;3.00;99.90;;;;;;6154251;23;20424;-86
2021/10/29 04:32:17;;;;;;;71.38;33.85;;;2.90;99.90;;;;;;6164810;23;20018;-86
2021/10/29 04:35:04;;;;;;;73.80;34.00;;;2.90;99.90;;;;;;6156716;23;20363;-86
2021/10/29 04:37:55;;;;;;;68.43;31.42;;;2.80;99.90;;;;;;6154399;23;20075;-86
2021/10/29 04:40:43;;;;;;;75.72;32.60;;;2.80;99.90;;;;;;6152509;23;20405;-86
2021/10/29 05:00:56;;;;;;;79.45;37.80;;;3.00;99.90;;;;;;6155206;23;20128;-87
2021/10/29 05:12:13;;;;;;;72.18;33.35;;;2.80;99.90;;;;;;6142911;23;20017;-88
2021/10/29 05:15:03;;;;;;;69.65;33.55;;;2.70;99.90;;;;;;6152302;23;20425;-87
2021/10/29 05:17:51;;;;;;;71.38;31.90;;;2.70;99.90;;;;;;6112446;23;20036;-86
2021/10/29 05:20:38;;;;;;;73.10;34.72;;;2.60;99.90;;;;;;6153417;23;20595;-88
2021/10/29 05:23:30;;;;;;;62.00;32.88;;;2.60;99.90;;;;;;6151580;23;20101;-89
2021/10/29 05:26:17;;;;;;;65.40;32.70;;;2.60;99.90;;;;;;6152739;23;20033;-87
2021/10/29 05:29:05;;;;;;;64.18;33.08;;;2.60;99.90;;;;;;6133286;23;20033;-87
2021/10/29 05:31:52;;;;;;;67.97;33.50;;;2.60;99.90;;;;;;6133849;23;20132;-88
2021/10/29 05:34:42;;;;;;;67.80;33.63;;;2.60;99.90;;;;;;6152192;23;20025;-88
2021/10/29 05:37:30;;;;;;;70.07;32.63;;;2.60;99.90;;;;;;6131101;23;20080;-88
2021/10/29 05:40:17;;;;;;;69.68;33.20;;;2.60;99.90;;;;;;6150520;23;20061;-88
2021/10/29 05:43:06;;;;;;;65.95;31.95;;;2.60;99.90;;;;;;6130576;23;20040;-88
2021/10/29 05:45:53;;;;;;;77.35;37.35;;;2.60;99.90;;;;;;6132612;23;20037;-87
2021/10/29 05:48:45;;;;;;;73.35;38.55;;;2.60;99.90;;;;;;6153107;23;20429;-86
2021/10/29 05:51:39;;;;;;;72.63;38.05;;;2.60;99.90;;;;;;6114986;23;20452;-86
2021/10/29 05:57:19;;;;;;;68.10;36.72;;;2.50;99.90;;;;;;6132949;23;20117;-87
2021/10/29 06:00:07;;;;;;;70.38;35.75;;;2.40;99.90;;;;;;6154734;23;20060;-85
2021/10/29 06:02:55;;;;;;;69.03;35.13;;;2.40;99.90;;;;;;6126308;23;20025;-85
2021/10/29 06:05:43;;;;;;;69.53;37.92;;;2.30;99.90;;;;;;6152370;23;20109;-86
2021/10/29 06:08:30;;;;;;;79.10;36.58;;;2.30;99.90;;;;;;6130270;23;20107;-86
2021/10/29 06:11:26;;;;;;;70.97;35.03;;;2.40;99.90;;;;;;6121309;23;20044;-86
2021/10/29 06:14:15;;;;;;;61.55;33.38;;;2.30;99.90;;;;;;6150712;23;20026;-85
2021/10/29 06:17:06;;;;;;;71.65;36.45;;;2.30;99.90;;;;;;6150553;23;20065;-85
2021/10/29 06:19:56;;;;;;;76.80;35.30;;;2.40;99.90;;;;;;6151851;23;20026;-86
2021/10/29 06:22:48;;;;;;;69.88;36.15;;;2.40;99.90;;;;;;6133350;23;20176;-85
2021/10/29 06:25:43;;;;;;;79.00;34.63;;;2.50;99.90;;;;;;6146922;23;20030;-85
2021/10/29 06:28:30;;;;;;;71.80;35.67;;;2.70;99.90;;;;;;6111970;23;20115;-86
2021/10/29 06:31:18;;;;;;;76.32;37.63;;;3.00;99.90;;;;;;6152116;23;20034;-84
2021/10/29 06:34:08;;;;;;;87.38;39.58;;;3.20;99.90;;;;;;6149174;23;20029;-85
2021/10/29 06:36:55;;;;;;;93.13;38.78;;;3.40;99.90;;;;;;6147047;23;20116;-86
2021/10/29 06:39:46;;;;;;;79.20;35.92;;;3.40;99.90;;;;;;6129382;23;20029;-86
2021/10/29 06:42:35;;;;;;;81.85;35.42;;;3.50;99.90;;;;;;6152906;23;20419;-84
2021/10/29 07:00:54;;;;;;;77.43;38.53;;;5.60;99.90;;;;;;6151273;23;20021;-86
2021/10/29 07:04:16;;;;;;;61.40;32.83;;;6.10;99.90;;;;;;6132194;23;20357;-86
2021/10/29 07:46:42;;;;;;;19.15;14.73;;;7.20;99.90;;;;;;6094851;23;20030;-85
2021/10/29 07:49:29;;;;;;;23.13;15.68;;;7.10;99.90;;;;;;6093243;23;20023;-85
2021/10/29 07:52:17;;;;;;;24.67;17.23;;;7.20;99.90;;;;;;6091884;23;20066;-86
2021/10/29 07:55:09;;;;;;;21.17;15.52;;;7.20;99.90;;;;;;6053334;23;20030;-85
2021/10/29 07:58:03;;;;;;;24.60;16.27;;;7.50;99.90;;;;;;6065044;23;20312;-86
2021/10/29 08:01:14;;;;;;;24.95;14.07;;;7.80;99.90;;;;;;6064429;23;20015;-85
2021/10/29 08:04:02;;;;;;;25.02;14.68;;;7.70;99.90;;;;;;6093902;23;20050;-85
2021/10/29 08:24:10;;;;;;;16.52;12.18;;;8.40;99.90;;;;;;6068391;23;20009;-86
2021/10/29 08:26:58;;;;;;;16.20;11.15;;;8.70;99.90;;;;;;6134170;23;20040;-86
2021/10/29 08:29:47;;;;;;;14.30;10.50;;;8.70;99.90;;;;;;6136367;23;20030;-86
2021/10/29 08:32:46;;;;;;;17.85;11.43;;;8.90;99.90;;;;;;6135525;23;20108;-85
2021/10/29 08:35:56;;;;;;;14.55;11.00;;;9.10;99.90;;;;;;6107823;23;20141;-86
2021/10/29 08:38:44;;;;;;;16.27;11.02;;;9.50;99.90;;;;;;6104934;23;20037;-87
2021/10/29 08:41:48;;;;;;;13.35;10.40;;;9.80;99.90;;;;;;6109371;23;20048;-87
2021/10/29 08:44:38;;;;;;;15.75;10.52;;;9.90;99.90;;;;;;6125120;23;20018;-86
2021/10/29 08:47:50;;;;;;;20.75;10.15;;;9.80;99.90;;;;;;6093434;23;20029;-86
2021/10/29 08:51:03;;;;;;;16.33;11.73;;;9.80;99.90;;;;;;6092515;23;20057;-87
2021/10/29 08:53:55;;;;;;;14.60;10.60;;;9.90;99.90;;;;;;6102223;23;20022;-88
2021/10/29 08:57:00;;;;;;;13.88;10.38;;;10.20;99.90;;;;;;6111487;23;20026;-85
2021/10/29 09:31:43;;;;;;;12.27;8.93;;;14.30;99.90;;;;;;5901286;24;20440;-87
2021/10/29 09:55:45;;;;;;;7.60;6.47;;;17.40;91.20;;;;;;5976252;24;20128;-87
2021/10/29 09:58:32;;;;;;;7.25;6.43;;;18.90;84.40;;;;;;6094637;23;20434;-88
2021/10/29 10:01:24;;;;;;;7.90;6.13;;;20.20;72.60;;;;;;6094120;23;20106;-87
2021/10/29 10:04:14;;;;;;;7.40;6.10;;;20.60;68.10;;;;;;6071108;23;20018;-87
2021/10/29 10:07:05;;;;;;;8.30;6.32;;;20.60;66.90;;;;;;6092872;23;20030;-86
2021/10/29 10:09:57;;;;;;;7.32;6.28;;;20.40;66.40;;;;;;6052471;23;20030;-86
2021/10/29 10:12:58;;;;;;;12.30;6.78;;;19.80;67.40;;;;;;6093271;23;20022;-86
2021/10/29 10:15:50;;;;;;;7.57;5.97;;;19.90;66.60;;;;;;6068399;23;20082;-87
2021/10/29 10:18:40;;;;;;;8.65;6.90;;;20.50;63.50;;;;;;6070392;23;20158;-88
2021/10/29 10:21:33;;;;;;;7.55;6.07;;;21.00;61.10;;;;;;6072524;23;20381;-86
2021/10/29 10:24:30;;;;;;;6.65;5.85;;;21.60;59.90;;;;;;6071253;23;20111;-88
2021/10/29 10:47:25;;;;;;;8.30;5.63;;;20.80;56.80;;;;;;6051024;23;20382;-89
2021/10/29 10:50:18;;;;;;;8.88;6.05;;;21.20;57.10;;;;;;6106629;23;20022;-87
2021/10/29 10:53:11;;;;;;;8.52;5.75;;;21.70;55.20;;;;;;6087841;23;20042;-86
2021/10/29 10:59:41;;;;;;;8.65;5.82;;;21.20;54.90;;;;;;6109827;23;20045;-88
2021/10/29 11:06:23;;;;;;;6.07;5.07;;;20.70;56.10;;;;;;6060742;23;20026;-86
2021/10/29 11:12:44;;;;;;;9.25;5.85;;;22.50;52.10;;;;;;6105330;23;20041;-88
2021/10/29 11:15:37;;;;;;;7.30;4.95;;;23.50;50.00;;;;;;6095659;23;20041;-87
2021/10/29 11:18:31;;;;;;;11.65;5.78;;;23.90;49.60;;;;;;6053038;23;20026;-87
2021/10/29 11:21:24;;;;;;;8.70;5.65;;;24.70;48.40;;;;;;6094699;23;20490;-88
2021/10/29 11:24:15;;;;;;;8.20;5.65;;;25.10;48.90;;;;;;6074604;23;20049;-89
2021/10/29 11:27:17;;;;;;;7.65;4.97;;;25.90;45.40;;;;;;6073576;23;20121;-88
2021/10/29 11:30:06;;;;;;;9.43;5.55;;;26.20;45.00;;;;;;6098498;23;20386;-89
2021/10/29 11:32:58;;;;;;;6.03;4.57;;;26.40;45.30;;;;;;6094398;23;20461;-89
2021/10/29 11:36:04;;;;;;;9.52;4.93;;;27.10;44.10;;;;;;6075317;23;20026;-88
2021/10/29 11:39:01;;;;;;;5.72;4.43;;;27.40;40.50;;;;;;6096217;23;20026;-88
2021/10/29 11:41:59;;;;;;;8.52;5.80;;;26.90;40.90;;;;;;6100624;23;20093;-89
2021/10/29 11:44:51;;;;;;;6.72;4.95;;;26.30;40.10;;;;;;6101913;23;20034;-88
2021/10/29 11:47:41;;;;;;;8.10;5.13;;;26.00;41.30;;;;;;6123840;23;20061;-89
2021/10/29 11:50:29;;;;;;;14.32;5.50;;;25.80;41.00;;;;;;6123371;23;20026;-88
2021/10/29 11:53:20;;;;;;;11.52;5.45;;;25.80;40.10;;;;;;6102125;23;20025;-87
2021/10/29 11:56:25;;;;;;;8.48;4.65;;;25.30;42.10;;;;;;6103617;23;20029;-90
2021/10/29 12:00:22;;;;;;;7.60;4.80;;;25.40;41.50;;;;;;6107290;23;20022;-88
2021/10/29 12:07:37;;;;;;;7.40;4.60;;;26.30;38.60;;;;;;6120331;23;20033;-87
2021/10/29 12:10:33;;;;;;;9.27;5.50;;;26.60;37.10;;;;;;6103345;23;20333;-88
2021/10/29 12:13:25;;;;;;;7.45;4.45;;;26.70;36.80;;;;;;6123890;23;20096;-88
2021/10/29 12:16:19;;;;;;;9.18;5.22;;;27.20;37.00;;;;;;6104110;23;20057;-88
2021/10/29 12:19:09;;;;;;;7.63;4.85;;;27.90;36.50;;;;;;6124990;23;20388;-88
2021/10/29 12:22:07;;;;;;;6.10;4.55;;;27.90;35.90;;;;;;6103603;23;20092;-89
2021/10/29 12:25:09;;;;;;;6.53;4.68;;;27.70;34.90;;;;;;6126378;23;20052;-88
2021/10/29 12:28:05;;;;;;;7.85;5.07;;;27.80;35.40;;;;;;6128256;23;20029;-88
2021/10/29 12:34:28;;;;;;;5.68;4.03;;;29.20;34.00;;;;;;6011043;23;20048;-88
2021/10/29 12:53:29;;;;;;;9.20;4.90;;;27.50;35.90;;;;;;6127713;23;20348;-89
2021/10/29 13:02:56;;;;;;;8.80;4.15;;;28.90;31.60;;;;;;6124506;23;20034;-89
2021/10/29 13:05:53;;;;;;;6.20;3.97;;;28.70;31.70;;;;;;6105982;23;20033;-87
2021/10/29 13:08:42;;;;;;;6.65;4.38;;;28.60;32.80;;;;;;6108905;23;20036;-88
2021/10/29 13:11:34;;;;;;;7.28;4.18;;;28.30;32.50;;;;;;6090033;23;20043;-89
2021/10/29 13:14:27;;;;;;;5.88;4.10;;;29.30;31.00;;;;;;6125497;23;20109;-88
2021/10/29 14:01:54;;;;;;;5.05;3.35;;;26.90;34.60;;;;;;6019285;23;20062;-85
2021/10/29 14:29:44;;;;;;;4.55;2.42;;;24.00;40.50;;;;;;6096558;23;20129;-86
2021/10/29 14:33:21;;;;;;;5.20;2.72;;;23.80;41.60;;;;;;6073941;23;20030;-88
2021/10/29 14:35:50;;;;;;;5.22;2.80;;;24.20;40.70;;;;;;6104005;23;20442;-86
2021/10/29 14:41:53;;;;;;;3.63;2.40;;;25.20;39.40;;;;;;6096318;23;20101;-86
2021/10/29 14:45:02;;;;;;;4.18;2.10;;;25.90;38.70;;;;;;6093594;23;20379;-86
2021/10/29 14:52:02;;;;;;;3.08;2.30;;;27.10;34.80;;;;;;6099089;23;20126;-88
2021/10/29 15:01:37;;;;;;;4.35;2.55;;;25.40;38.70;;;;;;6096314;23;20280;-88
2021/10/29 15:41:18;;;;;;;9.05;4.00;;;20.20;50.90;;;;;;6102674;23;20029;-87
2021/10/29 15:44:11;;;;;;;6.60;4.15;;;20.30;50.20;;;;;;6099114;23;20026;-88
2021/10/29 15:47:08;;;;;;;7.03;3.83;;;20.10;51.40;;;;;;6118299;23;20030;-86
2021/10/29 15:49:58;;;;;;;7.82;3.85;;;19.50;52.00;;;;;;6106684;23;20061;-86
2021/10/29 15:52:51;;;;;;;7.60;3.95;;;18.90;53.40;;;;;;6105667;23;20121;-86
2021/10/29 15:58:45;;;;;;;9.43;3.63;;;17.00;59.10;;;;;;6126094;23;20049;-85
2021/10/29 16:01:53;;;;;;;5.00;3.67;;;16.20;61.80;;;;;;6108271;23;20058;-86
2021/10/29 16:17:14;;;;;;;9.80;4.95;;;13.30;77.00;;;;;;6127153;23;20138;-87
2021/10/29 16:20:04;;;;;;;10.25;5.38;;;13.00;80.40;;;;;;6126817;23;20081;-88
2021/10/29 16:23:02;;;;;;;7.47;5.20;;;12.70;84.30;;;;;;6106176;23;20026;-87
2021/10/29 16:25:54;;;;;;;11.18;5.22;;;12.50;89.00;;;;;;6127086;23;20072;-88
2021/10/29 16:28:42;;;;;;;7.22;4.95;;;12.40;91.40;;;;;;6127052;23;20041;-87
2021/10/29 16:31:43;;;;;;;7.38;5.53;;;12.10;93.50;;;;;;6126882;23;20336;-85
2021/10/29 16:34:33;;;;;;;9.48;5.38;;;11.90;97.60;;;;;;6109451;23;20046;-89
2021/10/29 16:37:20;;;;;;;8.40;4.95;;;11.60;99.90;;;;;;6127533;23;20109;-88
2021/10/29 16:40:09;;;;;;;12.70;7.07;;;11.30;99.90;;;;;;6105236;23;20030;-87
2021/10/29 16:42:57;;;;;;;24.38;11.18;;;11.10;99.90;;;;;;6125223;23;20026;-86
2021/10/29 16:45:46;;;;;;;15.52;9.43;;;11.00;99.90;;;;;;6132909;23;20060;-87
2021/10/29 16:48:37;;;;;;;12.38;8.63;;;10.70;99.90;;;;;;6126172;23;20081;-86
2021/10/29 16:51:27;;;;;;;8.57;5.70;;;10.70;99.90;;;;;;6126992;23;20101;-86
2021/10/29 16:54:15;;;;;;;9.98;5.75;;;10.70;99.90;;;;;;6124627;23;20101;-85
2021/10/29 16:57:03;;;;;;;13.93;6.50;;;10.70;99.90;;;;;;6125017;23;20057;-88
2021/10/29 16:59:53;;;;;;;10.30;7.35;;;10.60;99.90;;;;;;6129735;23;20022;-87
2021/10/29 17:02:41;;;;;;;11.82;6.95;;;10.40;99.90;;;;;;6128391;23;20402;-87
2021/10/29 17:05:33;;;;;;;10.98;7.45;;;10.20;99.90;;;;;;6108126;23;20133;-87
2021/10/29 17:08:21;;;;;;;15.23;9.45;;;10.00;99.90;;;;;;6111637;23;20025;-87
2021/10/29 17:11:13;;;;;;;18.55;8.27;;;9.90;99.90;;;;;;6129271;23;20037;-86
2021/10/29 17:14:02;;;;;;;14.33;7.63;;;9.80;99.90;;;;;;6126867;23;20386;-86
2021/10/29 17:16:50;;;;;;;14.63;8.75;;;9.80;99.90;;;;;;6104543;23;20597;-87
2021/10/29 17:19:37;;;;;;;16.75;8.40;;;9.80;99.90;;;;;;6129412;23;20054;-87
2021/10/29 17:22:24;;;;;;;22.90;15.35;;;9.70;99.90;;;;;;6131882;23;20081;-87
2021/10/29 17:25:14;;;;;;;19.85;13.65;;;9.70;99.90;;;;;;6105936;23;20097;-88
2021/10/29 17:28:02;;;;;;;17.33;11.38;;;9.50;99.90;;;;;;6129784;23;20025;-86
2021/10/29 17:30:50;;;;;;;13.43;10.32;;;9.40;99.90;;;;;;6129156;23;20055;-87
2021/10/29 17:33:39;;;;;;;17.83;11.90;;;9.40;99.90;;;;;;6109434;23;20026;-88
2021/10/29 17:36:26;;;;;;;28.92;18.00;;;9.30;99.90;;;;;;6110732;23;20094;-87
2021/10/29 17:39:16;;;;;;;23.40;13.60;;;9.30;99.90;;;;;;6111235;23;20077;-87
2021/10/29 17:42:05;;;;;;;24.85;16.92;;;9.20;99.90;;;;;;6118969;23;20022;-85
2021/10/29 17:44:58;;;;;;;27.63;19.07;;;9.10;99.90;;;;;;6140111;23;20030;-85
2021/10/29 17:47:46;;;;;;;24.02;16.58;;;9.00;99.90;;;;;;6119218;23;20034;-86
2021/10/29 17:50:36;;;;;;;20.40;13.95;;;8.90;99.90;;;;;;6146073;23;20370;-86
2021/10/29 17:53:24;;;;;;;21.02;13.68;;;8.90;99.90;;;;;;6144392;23;20026;-85
2021/10/29 17:56:11;;;;;;;32.42;20.90;;;8.90;99.90;;;;;;6140808;23;20454;-86
2021/10/29 17:59:04;;;;;;;27.20;19.58;;;9.00;99.90;;;;;;6137110;23;20057;-87
2021/10/29 18:01:56;;;;;;;29.95;19.02;;;8.90;99.90;;;;;;6141127;23;20101;-87
2021/10/29 18:04:46;;;;;;;25.83;17.10;;;9.00;99.90;;;;;;6112218;23;20382;-87
2021/10/29 18:07:34;;;;;;;26.05;15.48;;;9.00;99.90;;;;;;6128497;23;20085;-86
2021/10/29 18:10:22;;;;;;;24.63;15.73;;;8.80;99.90;;;;;;6106750;23;20030;-87
2021/10/29 18:13:09;;;;;;;22.90;15.55;;;8.80;99.90;;;;;;6127268;23;20132;-87
2021/10/29 18:15:59;;;;;;;24.60;15.90;;;8.70;99.90;;;;;;6125574;23;20334;-86
2021/10/29 18:18:50;;;;;;;22.90;14.73;;;8.50;99.90;;;;;;6086321;23;20037;-87
2021/10/29 18:21:38;;;;;;;22.25;14.00;;;8.50;99.90;;;;;;6123575;23;20045;-87
2021/10/29 18:24:25;;;;;;;22.58;14.68;;;8.50;99.90;;;;;;6104461;23;20040;-86
2021/10/29 18:27:15;;;;;;;20.33;15.00;;;8.40;99.90;;;;;;6105238;23;20037;-87
2021/10/29 18:30:05;;;;;;;19.70;14.05;;;8.40;99.90;;;;;;6126640;23;20039;-87
2021/10/29 18:32:57;;;;;;;27.85;15.10;;;8.30;99.90;;;;;;6123322;23;20044;-87
2021/10/29 18:35:44;;;;;;;25.65;15.00;;;8.40;99.90;;;;;;6124807;23;20129;-86
2021/10/29 18:38:34;;;;;;;22.33;13.80;;;8.40;99.90;;;;;;6102262;23;20026;-86
2021/10/29 18:41:22;;;;;;;25.23;16.08;;;8.30;99.90;;;;;;6127462;23;20037;-86
2021/10/29 18:44:10;;;;;;;22.75;14.65;;;8.20;99.90;;;;;;6127716;23;20041;-86
2021/10/29 18:46:58;;;;;;;23.52;14.90;;;8.10;99.90;;;;;;6125697;23;20513;-86
2021/10/29 18:49:48;;;;;;;19.38;14.27;;;8.10;99.90;;;;;;6107067;23;20209;-86
2021/10/29 18:52:37;;;;;;;26.60;15.52;;;8.20;99.90;;;;;;6104802;23;20125;-86
2021/10/29 18:55:24;;;;;;;20.50;14.43;;;8.10;99.90;;;;;;6125053;23;20125;-87
2021/10/29 18:58:14;;;;;;;23.65;15.10;;;8.00;99.90;;;;;;6126415;23;20096;-86
2021/10/29 19:01:02;;;;;;;21.98;15.02;;;8.00;99.90;;;;;;6126409;23;20029;-86
2021/10/29 19:03:53;;;;;;;21.55;14.75;;;7.90;99.90;;;;;;6125671;23;20029;-88
2021/10/29 19:06:41;;;;;;;25.83;17.30;;;7.80;99.90;;;;;;6127025;23;20033;-87
2021/10/29 19:09:34;;;;;;;26.27;17.00;;;7.90;99.90;;;;;;6130535;23;20053;-87
2021/10/29 19:12:22;;;;;;;23.50;15.77;;;7.90;99.90;;;;;;6110892;23;20030;-87
2021/10/29 19:15:09;;;;;;;24.80;15.68;;;7.90;99.90;;;;;;6087916;23;20450;-87
2021/10/29 19:17:56;;;;;;;30.98;17.70;;;7.90;99.90;;;;;;6126974;23;20026;-87
2021/10/29 19:20:46;;;;;;;27.13;16.88;;;7.80;99.90;;;;;;6124964;23;20049;-87
2021/10/29 19:23:36;;;;;;;26.75;17.10;;;7.80;99.90;;;;;;6130306;23;20026;-87
2021/10/29 19:26:26;;;;;;;25.52;16.85;;;7.70;99.90;;;;;;6130339;23;20370;-85
2021/10/29 19:29:13;;;;;;;25.05;17.13;;;7.60;99.90;;;;;;6131790;23;20085;-87
2021/10/29 19:32:08;;;;;;;30.17;19.75;;;7.60;99.90;;;;;;6132915;23;20405;-86
2021/10/29 19:34:59;;;;;;;29.33;19.10;;;7.50;99.90;;;;;;6130130;23;20563;-86
2021/10/29 19:37:55;;;;;;;29.73;20.08;;;7.50;99.90;;;;;;6111169;23;20042;-87
2021/10/29 19:40:48;;;;;;;40.97;25.80;;;7.40;99.90;;;;;;6129897;23;20125;-86
2021/10/29 19:43:36;;;;;;;44.83;30.27;;;7.40;99.90;;;;;;6131837;23;20026;-86
2021/10/29 19:46:25;;;;;;;39.25;26.98;;;7.40;99.90;;;;;;6132981;23;20104;-86
2021/10/29 19:49:13;;;;;;;35.58;23.70;;;7.20;99.90;;;;;;6131943;23;20066;-86
2021/10/29 19:52:01;;;;;;;32.75;20.95;;;7.10;99.90;;;;;;6135324;23;20063;-86
2021/10/29 19:54:51;;;;;;;28.83;18.73;;;7.00;99.90;;;;;;6135697;23;20025;-86
2021/10/29 19:58:25;;;;;;;31.90;20.23;;;7.00;99.90;;;;;;6108187;23;20259;-88
2021/10/29 20:00:50;;;;;;;25.80;17.75;;;7.00;99.90;;;;;;6121631;23;20495;-89
2021/10/29 20:03:40;;;;;;;26.83;17.80;;;7.00;99.90;;;;;;6127147;23;20026;-88
2021/10/29 20:06:28;;;;;;;27.85;17.27;;;7.00;99.90;;;;;;6125442;23;20161;-90
2021/10/29 20:09:15;;;;;;;36.88;18.50;;;7.00;99.90;;;;;;6104493;23;20081;-88
2021/10/29 20:12:04;;;;;;;25.58;16.58;;;7.00;99.90;;;;;;6086124;23;20085;-88
2021/10/29 20:14:54;;;;;;;30.65;17.30;;;7.00;99.90;;;;;;6125970;23;20054;-89
2021/10/29 20:17:43;;;;;;;25.50;15.65;;;6.90;99.90;;;;;;6092852;23;20080;-88
2021/10/29 20:20:33;;;;;;;31.67;19.58;;;7.00;99.90;;;;;;6107430;23;20037;-89
2021/10/29 20:23:21;;;;;;;24.33;15.70;;;6.90;99.90;;;;;;6127346;23;20033;-88
2021/10/29 20:26:09;;;;;;;27.00;17.52;;;6.90;99.90;;;;;;6128647;23;20034;-89
2021/10/29 20:28:57;;;;;;;38.90;21.77;;;6.90;99.90;;;;;;6107482;23;20063;-89
2021/10/29 20:31:45;;;;;;;35.70;19.85;;;6.90;99.90;;;;;;6126726;23;20054;-87
2021/10/29 20:34:33;;;;;;;28.38;16.00;;;7.00;99.90;;;;;;6128927;23;20057;-88
2021/10/29 20:37:20;;;;;;;29.73;16.27;;;7.10;99.90;;;;;;6105075;23;20026;-88